Las Vegas, Nevada
Traffic Map
Current Weather Conditions
Las Vegas, Nevada
Clear
Clear
69°
Feels Like: 69°
Wind Chill: 69° Ceiling: Unl
Heat Index: 69° Visibility: 10mi
Dew Point: Wind: 15mph
Humidity: 9% Direction: 330° (NNW)
Pressure: 29.87in Gusts: 0mph
Raw Report DataKLAS 210656Z 33013KT 10SM CLR 21/M14 A2987 RMK AO2 SLP096 T02061139
Traffic Incident Summary
Active as of:
Severity:
Category:
InformationThere was an issue retrieving the traffic information for this location. Please try a different location or try again shortly.
Advertisements